Time;durP1;ratioP1;P1;durP2;ratioP2;P2;SDS_P1;SDS_P2;PMS_P1;PMS_P2;Temp;Humidity;BMP_temperature;BMP_pressure;BME280_temperature;BME280_humidity;BME280_pressure;Samples;Min_cycle;Max_cycle;Signal;HPM_P1;HPM_P2
2021/12/18 00:02:08;;;;;;;50.40;34.23;;;9.10;99.90;;;;;;4988452;28;20210;-25
2021/12/18 00:04:36;;;;;;;49.70;33.33;;;9.10;99.90;;;;;;4987539;28;20735;-25
2021/12/18 00:07:06;;;;;;;51.50;34.53;;;9.10;99.90;;;;;;4970164;28;20257;-24
2021/12/18 00:09:34;;;;;;;53.33;34.23;;;9.10;99.90;;;;;;4969133;28;20293;-25
2021/12/18 00:12:02;;;;;;;49.53;32.37;;;9.10;99.90;;;;;;4970039;28;20699;-25
2021/12/18 00:14:30;;;;;;;51.90;35.53;;;9.10;99.90;;;;;;4969639;28;20254;-25
2021/12/18 00:16:57;;;;;;;51.57;34.50;;;9.20;99.90;;;;;;4970277;28;20226;-25
2021/12/18 00:19:26;;;;;;;54.63;35.43;;;9.20;99.90;;;;;;4969574;28;20241;-25
2021/12/18 00:21:54;;;;;;;53.83;36.67;;;9.20;99.90;;;;;;4969851;28;20214;-25
2021/12/18 00:24:22;;;;;;;55.30;36.67;;;9.20;99.90;;;;;;4968516;28;20214;-25
2021/12/18 00:26:49;;;;;;;52.87;36.60;;;9.20;99.90;;;;;;4984551;28;20683;-25
2021/12/18 00:29:16;;;;;;;59.93;38.40;;;9.20;99.90;;;;;;4984095;28;20297;-25
2021/12/18 00:31:44;;;;;;;56.23;37.20;;;9.20;99.90;;;;;;4977097;28;20222;-25
2021/12/18 00:34:11;;;;;;;51.83;35.43;;;9.20;99.90;;;;;;4969911;28;20584;-25
2021/12/18 00:36:38;;;;;;;59.63;38.27;;;9.20;99.90;;;;;;4969877;28;20235;-25
2021/12/18 00:39:08;;;;;;;59.13;38.20;;;9.20;99.90;;;;;;4968361;28;20245;-25
2021/12/18 00:44:13;;;;;;;64.10;39.53;;;9.20;99.90;;;;;;4987226;28;20198;-25
2021/12/18 00:46:48;;;;;;;58.70;38.83;;;9.20;99.90;;;;;;4989193;28;20198;-25
2021/12/18 00:49:18;;;;;;;61.73;38.80;;;9.20;99.90;;;;;;4987712;28;20264;-25
2021/12/18 00:51:46;;;;;;;58.00;39.30;;;9.20;99.90;;;;;;4976988;28;20251;-24
2021/12/18 00:54:13;;;;;;;62.03;39.47;;;9.20;99.90;;;;;;4968214;28;20610;-24
2021/12/18 00:56:41;;;;;;;59.00;39.07;;;9.20;99.90;;;;;;4969755;28;20639;-24
2021/12/18 00:59:11;;;;;;;64.03;39.70;;;9.20;99.90;;;;;;4969246;28;20662;-24
2021/12/18 01:01:38;;;;;;;61.23;38.93;;;9.30;99.90;;;;;;4972466;28;20230;-24
2021/12/18 01:04:05;;;;;;;63.77;40.33;;;9.30;99.90;;;;;;4968954;28;20230;-24
2021/12/18 01:06:33;;;;;;;63.93;40.97;;;9.30;99.90;;;;;;4969750;28;20627;-24
2021/12/18 01:09:02;;;;;;;62.70;39.83;;;9.30;99.90;;;;;;4968549;28;20219;-24
2021/12/18 01:24:55;;;;;;;69.87;41.80;;;9.30;99.90;;;;;;4969083;28;20195;-23
2021/12/18 01:27:25;;;;;;;70.10;43.87;;;9.30;99.90;;;;;;4969206;28;20223;-24
2021/12/18 01:29:55;;;;;;;73.13;44.30;;;9.30;99.90;;;;;;4967557;28;20210;-25
2021/12/18 01:32:24;;;;;;;71.70;43.63;;;9.40;99.90;;;;;;4986324;28;20242;-25
2021/12/18 01:34:51;;;;;;;68.13;44.00;;;9.40;99.90;;;;;;4988283;28;20217;-25
2021/12/18 01:37:20;;;;;;;66.70;42.83;;;9.40;99.90;;;;;;4987841;28;20248;-25
2021/12/18 01:39:48;;;;;;;71.90;44.67;;;9.40;99.90;;;;;;4987246;28;20254;-25
2021/12/18 01:53:34;;;;;;;73.60;44.50;;;9.40;99.90;;;;;;4968493;28;20210;-25
2021/12/18 01:56:02;;;;;;;69.10;43.13;;;9.50;99.90;;;;;;4968214;28;20215;-24
2021/12/18 01:58:31;;;;;;;75.37;46.10;;;9.50;99.90;;;;;;4970115;28;20582;-23
2021/12/18 02:01:02;;;;;;;75.77;44.83;;;9.50;99.90;;;;;;4962801;28;20704;-24
2021/12/18 02:03:31;;;;;;;75.00;46.17;;;9.50;99.90;;;;;;4991200;28;20233;-24
2021/12/18 02:06:01;;;;;;;71.13;43.30;;;9.50;99.90;;;;;;4991712;28;20249;-24
2021/12/18 02:08:30;;;;;;;73.80;44.87;;;9.50;99.90;;;;;;4991372;28;20281;-24
2021/12/18 02:11:08;;;;;;;72.30;44.47;;;9.50;99.90;;;;;;4989001;28;20257;-24
2021/12/18 02:14:01;;;;;;;74.27;45.03;;;9.60;99.90;;;;;;4991466;28;20309;-24
2021/12/18 02:19:37;;;;;;;74.17;45.13;;;9.60;99.90;;;;;;4991217;28;20232;-24
2021/12/18 02:22:04;;;;;;;71.50;44.13;;;9.60;99.90;;;;;;4986958;28;20198;-24
2021/12/18 02:24:34;;;;;;;80.77;45.87;;;9.60;99.90;;;;;;4990778;28;20241;-24
2021/12/18 02:27:01;;;;;;;69.33;43.50;;;9.60;99.90;;;;;;4991607;28;20677;-24
2021/12/18 02:29:33;;;;;;;72.57;43.90;;;9.60;99.90;;;;;;4990996;28;20214;-24
2021/12/18 02:32:05;;;;;;;72.33;43.50;;;9.60;99.90;;;;;;4972021;28;20571;-24
2021/12/18 02:34:36;;;;;;;71.50;43.83;;;9.60;99.90;;;;;;4972016;28;20350;-24
2021/12/18 02:37:08;;;;;;;64.63;40.37;;;9.60;99.90;;;;;;4970536;28;20211;-24
2021/12/18 02:42:19;;;;;;;68.93;43.13;;;9.60;99.90;;;;;;4974380;28;20625;-24
2021/12/18 02:44:47;;;;;;;67.17;41.93;;;9.70;99.90;;;;;;4969891;28;20226;-24
2021/12/18 02:47:15;;;;;;;62.27;40.73;;;9.70;99.90;;;;;;4973837;28;20632;-24
2021/12/18 02:49:48;;;;;;;63.80;42.20;;;9.70;99.90;;;;;;4988670;28;20604;-24
2021/12/18 02:52:18;;;;;;;66.27;42.17;;;9.70;99.90;;;;;;4975471;28;20656;-24
2021/12/18 02:54:45;;;;;;;60.70;40.13;;;9.70;99.90;;;;;;4973824;28;20218;-24
2021/12/18 02:57:13;;;;;;;60.33;41.00;;;9.70;99.90;;;;;;4989237;28;20578;-24
2021/12/18 02:59:46;;;;;;;64.53;41.43;;;9.70;99.90;;;;;;4990611;28;20321;-24
2021/12/18 03:02:14;;;;;;;62.23;40.30;;;9.70;99.90;;;;;;4985663;28;20240;-23
2021/12/18 03:04:45;;;;;;;61.63;40.87;;;9.70;99.90;;;;;;4990600;28;20640;-24
2021/12/18 03:07:17;;;;;;;68.40;42.40;;;9.70;99.90;;;;;;4989788;28;20243;-24
2021/12/18 03:23:56;;;;;;;61.33;40.03;;;9.70;99.90;;;;;;4973558;28;20206;-24
2021/12/18 03:26:27;;;;;;;60.60;39.50;;;9.70;99.90;;;;;;4970984;28;20214;-24
2021/12/18 03:28:54;;;;;;;65.10;40.30;;;9.70;99.90;;;;;;4969453;28;20218;-24
2021/12/18 03:31:22;;;;;;;66.80;40.87;;;9.80;99.90;;;;;;4976536;28;20194;-24
2021/12/18 03:33:49;;;;;;;60.77;40.07;;;9.80;99.90;;;;;;4988841;28;20293;-24
2021/12/18 03:36:21;;;;;;;63.37;41.40;;;9.80;99.90;;;;;;4990602;28;20202;-24
2021/12/18 03:38:49;;;;;;;62.50;40.10;;;9.80;99.90;;;;;;4989976;28;20640;-24
2021/12/18 03:41:17;;;;;;;64.03;41.23;;;9.80;99.90;;;;;;4981778;28;20199;-24
2021/12/18 03:43:44;;;;;;;64.80;40.20;;;9.80;99.90;;;;;;4970840;28;20198;-24
2021/12/18 03:46:11;;;;;;;62.63;40.00;;;9.80;99.90;;;;;;4970513;28;20226;-24
2021/12/18 03:48:41;;;;;;;62.50;40.20;;;9.80;99.90;;;;;;4970549;28;20689;-24
2021/12/18 03:51:08;;;;;;;67.20;40.70;;;9.80;99.90;;;;;;4970820;28;20673;-24
2021/12/18 03:53:36;;;;;;;66.57;41.37;;;9.80;99.90;;;;;;4968501;28;20298;-24
2021/12/18 03:56:03;;;;;;;62.63;38.90;;;9.80;99.90;;;;;;4968260;28;20206;-24
2021/12/18 03:58:31;;;;;;;61.83;37.77;;;9.80;99.90;;;;;;4970802;28;20771;-24
2021/12/18 04:00:58;;;;;;;67.90;39.63;;;9.80;99.90;;;;;;4971060;28;20269;-24
2021/12/18 04:03:28;;;;;;;68.00;40.83;;;9.80;99.90;;;;;;4988375;28;20309;-24
2021/12/18 04:05:56;;;;;;;66.63;40.07;;;9.80;99.90;;;;;;4989931;28;20321;-24
2021/12/18 04:08:23;;;;;;;64.63;40.70;;;9.80;99.90;;;;;;4989158;28;20202;-24
2021/12/18 04:10:50;;;;;;;65.77;38.73;;;9.80;99.90;;;;;;4987497;28;20765;-25
2021/12/18 04:13:17;;;;;;;65.80;39.70;;;9.80;99.90;;;;;;4970023;28;20215;-25
2021/12/18 04:15:47;;;;;;;64.63;40.23;;;9.80;99.90;;;;;;4970897;28;20301;-25
2021/12/18 04:18:16;;;;;;;65.87;38.43;;;9.80;99.90;;;;;;4970154;28;20221;-25
2021/12/18 04:20:46;;;;;;;65.00;38.87;;;9.80;99.90;;;;;;4968322;28;20246;-25
2021/12/18 04:23:14;;;;;;;64.87;38.73;;;9.80;99.90;;;;;;4988091;28;20198;-25
2021/12/18 04:25:44;;;;;;;67.83;39.70;;;9.80;99.90;;;;;;4988452;28;20205;-25
2021/12/18 04:28:11;;;;;;;65.60;39.77;;;9.80;99.90;;;;;;4989474;28;20231;-25
2021/12/18 04:30:41;;;;;;;63.33;38.30;;;9.90;99.90;;;;;;4989423;28;20292;-25
2021/12/18 04:33:08;;;;;;;67.23;39.50;;;9.80;99.90;;;;;;4982586;28;20222;-25
2021/12/18 04:35:38;;;;;;;67.27;38.60;;;9.90;99.90;;;;;;4969650;28;20250;-25
2021/12/18 04:38:07;;;;;;;63.33;38.60;;;9.80;99.90;;;;;;4969422;28;20225;-25
2021/12/18 04:40:35;;;;;;;60.20;37.17;;;9.90;99.90;;;;;;4969122;28;20245;-25
2021/12/18 04:43:05;;;;;;;62.57;39.03;;;9.90;99.90;;;;;;4984887;28;20695;-25
2021/12/18 04:45:33;;;;;;;70.60;38.93;;;9.90;99.90;;;;;;4988874;28;20297;-25
2021/12/18 04:48:00;;;;;;;71.20;40.40;;;9.90;99.90;;;;;;4988819;28;20211;-25
2021/12/18 04:50:27;;;;;;;65.33;37.47;;;9.90;99.90;;;;;;4971935;28;20209;-25
2021/12/18 04:52:55;;;;;;;69.63;39.93;;;9.90;99.90;;;;;;4968884;28;20241;-25
2021/12/18 04:55:24;;;;;;;65.40;38.33;;;9.90;99.90;;;;;;4968719;28;20207;-25
2021/12/18 04:57:56;;;;;;;63.93;36.80;;;9.90;99.90;;;;;;4969451;28;20266;-24
2021/12/18 05:00:35;;;;;;;57.97;34.97;;;9.90;99.90;;;;;;4969092;28;20313;-24
2021/12/18 05:03:06;;;;;;;60.57;34.93;;;9.90;99.90;;;;;;4970721;28;20224;-25
2021/12/18 05:05:34;;;;;;;59.17;33.73;;;9.90;99.90;;;;;;4969735;28;20327;-25
2021/12/18 05:08:03;;;;;;;60.57;34.77;;;9.90;99.90;;;;;;4969012;28;20892;-24
2021/12/18 05:10:31;;;;;;;57.97;33.87;;;9.90;99.90;;;;;;4966919;28;20203;-25
2021/12/18 05:12:59;;;;;;;61.93;36.00;;;9.90;99.90;;;;;;4984565;28;20752;-25
2021/12/18 05:15:26;;;;;;;58.70;33.93;;;9.90;99.90;;;;;;4987237;28;20206;-25
2021/12/18 05:17:53;;;;;;;62.73;34.87;;;9.80;99.90;;;;;;4989180;28;20212;-25
2021/12/18 05:20:24;;;;;;;57.07;34.00;;;9.90;99.90;;;;;;4988589;28;20321;-24
2021/12/18 05:22:51;;;;;;;60.40;33.03;;;9.90;99.90;;;;;;4974045;28;20211;-24
2021/12/18 05:25:18;;;;;;;54.90;32.60;;;9.80;99.90;;;;;;4966540;28;20681;-25
2021/12/18 05:27:48;;;;;;;59.10;32.37;;;9.80;99.90;;;;;;4969167;28;20322;-24
2021/12/18 05:30:18;;;;;;;58.07;32.80;;;9.90;99.90;;;;;;4968901;28;20258;-25
2021/12/18 05:32:47;;;;;;;54.80;32.33;;;9.90;99.90;;;;;;4982325;28;20220;-25
2021/12/18 05:35:18;;;;;;;59.20;34.10;;;9.90;99.90;;;;;;4988257;28;20521;-25
2021/12/18 05:40:21;;;;;;;60.30;34.40;;;9.90;99.90;;;;;;4984710;28;20232;-25
2021/12/18 05:42:53;;;;;;;59.10;33.60;;;9.90;99.90;;;;;;4984701;28;20228;-25
2021/12/18 05:45:20;;;;;;;64.00;35.37;;;9.90;99.90;;;;;;4990878;28;20244;-25
2021/12/18 05:47:47;;;;;;;61.80;35.20;;;9.90;99.90;;;;;;4990711;28;20221;-25
2021/12/18 05:50:18;;;;;;;59.07;33.20;;;9.90;99.90;;;;;;4991634;28;20210;-25
2021/12/18 05:52:47;;;;;;;61.47;33.27;;;9.90;99.90;;;;;;4970531;28;20235;-25
2021/12/18 05:55:15;;;;;;;61.33;33.33;;;9.90;99.90;;;;;;4972566;28;20202;-24
2021/12/18 05:57:44;;;;;;;63.80;34.03;;;10.00;99.90;;;;;;4988574;28;20206;-25
2021/12/18 06:00:12;;;;;;;63.97;35.23;;;10.00;99.90;;;;;;4978537;28;20218;-24
2021/12/18 06:02:40;;;;;;;64.33;33.97;;;9.90;99.90;;;;;;4977542;28;20202;-25
2021/12/18 06:05:10;;;;;;;64.50;34.90;;;9.90;99.90;;;;;;4979009;28;20202;-25
2021/12/18 06:07:52;;;;;;;60.93;33.90;;;9.90;99.90;;;;;;4979251;28;20682;-24
2021/12/18 06:10:25;;;;;;;63.97;34.87;;;9.90;99.90;;;;;;4977203;28;20338;-25
2021/12/18 06:12:52;;;;;;;60.33;34.57;;;9.90;99.90;;;;;;4978232;28;20225;-26
2021/12/18 06:15:20;;;;;;;63.07;35.50;;;9.90;99.90;;;;;;4978659;28;20222;-25
2021/12/18 06:17:49;;;;;;;61.63;35.30;;;9.90;99.90;;;;;;4979655;28;20210;-25
2021/12/18 06:20:16;;;;;;;61.37;34.23;;;9.90;99.90;;;;;;4976748;28;20953;-25
2021/12/18 06:22:44;;;;;;;63.30;34.97;;;9.90;99.90;;;;;;4978618;28;20667;-25
2021/12/18 06:25:11;;;;;;;60.00;34.70;;;10.00;99.90;;;;;;4974809;28;20669;-25
2021/12/18 06:27:38;;;;;;;61.63;35.47;;;10.00;99.90;;;;;;4976525;28;20206;-24
2021/12/18 06:30:07;;;;;;;64.33;36.50;;;10.00;99.90;;;;;;4982224;28;20229;-24
2021/12/18 06:32:36;;;;;;;63.83;35.83;;;10.00;99.90;;;;;;4978984;28;20210;-24
2021/12/18 06:35:04;;;;;;;66.20;36.37;;;10.00;99.90;;;;;;4991262;28;20210;-24
2021/12/18 06:37:34;;;;;;;61.07;35.50;;;10.00;99.90;;;;;;4980939;28;20297;-23
2021/12/18 06:40:03;;;;;;;67.33;37.17;;;10.00;99.90;;;;;;4988799;28;20791;-24
2021/12/18 06:42:45;;;;;;;69.43;37.10;;;10.00;99.90;;;;;;4980274;28;20194;-24
2021/12/18 06:45:13;;;;;;;59.03;33.33;;;10.00;99.90;;;;;;4980637;28;20292;-24
2021/12/18 06:47:42;;;;;;;59.97;33.53;;;10.00;99.90;;;;;;4973242;28;20204;-24
2021/12/18 06:50:10;;;;;;;64.63;35.57;;;10.00;99.90;;;;;;4979836;28;20316;-24
2021/12/18 06:52:47;;;;;;;66.37;36.00;;;10.00;99.90;;;;;;4985714;28;20239;-24
2021/12/18 06:55:16;;;;;;;69.43;36.67;;;10.00;99.90;;;;;;4986916;28;20288;-24
2021/12/18 06:57:44;;;;;;;69.00;37.97;;;10.00;99.90;;;;;;4991198;28;20226;-24
2021/12/18 07:00:14;;;;;;;67.93;36.80;;;10.00;99.90;;;;;;4989927;28;20245;-24
2021/12/18 07:02:42;;;;;;;65.93;36.00;;;10.00;99.90;;;;;;4985957;28;20198;-23
2021/12/18 07:05:12;;;;;;;68.10;37.03;;;10.00;99.90;;;;;;4973973;28;20242;-24
2021/12/18 07:07:40;;;;;;;67.13;36.63;;;10.00;99.90;;;;;;4977012;28;20746;-24
2021/12/18 07:10:10;;;;;;;67.27;35.57;;;10.00;99.90;;;;;;4972406;28;20199;-24
2021/12/18 07:12:40;;;;;;;66.03;36.27;;;10.00;99.90;;;;;;4972796;28;20211;-25
2021/12/18 07:15:13;;;;;;;64.13;34.43;;;10.00;99.90;;;;;;4980950;28;20222;-24
2021/12/18 07:17:46;;;;;;;64.50;34.97;;;10.10;99.90;;;;;;4971333;28;20199;-25
2021/12/18 07:20:14;;;;;;;65.07;35.03;;;10.00;99.90;;;;;;4972891;28;20254;-25
2021/12/18 07:22:41;;;;;;;70.43;36.30;;;10.00;99.90;;;;;;4975685;28;20223;-25
2021/12/18 07:25:11;;;;;;;67.40;36.67;;;10.00;99.90;;;;;;4980698;28;20203;-25
2021/12/18 07:27:41;;;;;;;73.83;38.90;;;10.10;99.90;;;;;;4980784;28;20293;-25
2021/12/18 07:30:09;;;;;;;68.90;37.07;;;10.00;99.90;;;;;;4988409;28;20206;-24
2021/12/18 07:32:37;;;;;;;70.53;37.13;;;10.10;99.90;;;;;;4971744;28;20226;-25
2021/12/18 07:35:06;;;;;;;68.73;37.00;;;10.10;99.90;;;;;;4975017;28;20202;-24
2021/12/18 07:37:33;;;;;;;67.60;36.57;;;10.10;99.90;;;;;;4988337;28;20292;-25
2021/12/18 07:40:01;;;;;;;76.57;38.17;;;10.00;99.90;;;;;;4981477;28;20587;-25
2021/12/18 07:42:33;;;;;;;72.67;35.87;;;10.00;99.90;;;;;;4990383;28;20201;-26
2021/12/18 07:45:00;;;;;;;71.97;37.23;;;10.10;99.90;;;;;;4980741;28;20211;-24
2021/12/18 07:47:30;;;;;;;71.63;37.87;;;10.10;99.90;;;;;;4977723;28;20209;-25
2021/12/18 07:49:57;;;;;;;71.47;36.90;;;10.10;99.90;;;;;;4979306;28;20219;-24
2021/12/18 07:52:24;;;;;;;70.40;35.63;;;10.10;99.90;;;;;;4969946;28;20246;-25
2021/12/18 07:54:52;;;;;;;77.33;37.70;;;10.10;99.90;;;;;;4969492;28;20207;-25
2021/12/18 07:57:19;;;;;;;74.33;37.23;;;10.10;99.90;;;;;;4972933;28;20314;-25
2021/12/18 07:59:46;;;;;;;77.87;38.53;;;10.10;99.90;;;;;;4969827;28;20199;-25
2021/12/18 08:02:16;;;;;;;78.63;38.53;;;10.10;99.90;;;;;;4973977;28;20233;-25
2021/12/18 08:04:43;;;;;;;78.57;39.67;;;10.10;99.90;;;;;;4983264;28;20210;-24
2021/12/18 08:07:11;;;;;;;80.00;40.10;;;10.10;99.90;;;;;;4970324;28;20214;-24
2021/12/18 08:09:38;;;;;;;75.33;39.17;;;10.10;99.90;;;;;;4970615;28;20229;-24
2021/12/18 08:12:09;;;;;;;83.03;40.50;;;10.10;99.90;;;;;;4979803;28;20250;-24
2021/12/18 08:14:38;;;;;;;77.00;39.00;;;10.10;99.90;;;;;;4980790;28;20770;-25
2021/12/18 08:17:08;;;;;;;80.07;38.83;;;10.10;99.90;;;;;;4981646;28;20216;-25
2021/12/18 08:19:40;;;;;;;75.77;37.30;;;10.10;99.90;;;;;;4977718;28;20249;-24
2021/12/18 08:22:07;;;;;;;75.17;37.73;;;10.10;99.90;;;;;;4980557;28;20282;-25
2021/12/18 08:24:34;;;;;;;73.17;36.07;;;10.10;99.90;;;;;;4973364;28;20225;-25
2021/12/18 08:27:02;;;;;;;76.03;35.57;;;10.10;99.90;;;;;;4986997;28;20201;-24
2021/12/18 08:29:31;;;;;;;60.50;32.53;;;10.10;99.90;;;;;;4976143;28;20591;-25
2021/12/18 08:31:59;;;;;;;65.07;31.77;;;10.20;99.90;;;;;;4968041;28;20647;-25
2021/12/18 08:34:26;;;;;;;58.60;30.07;;;10.20;99.90;;;;;;4971082;28;20692;-25
2021/12/18 08:36:53;;;;;;;61.97;30.60;;;10.20;99.90;;;;;;4985342;28;20241;-25
2021/12/18 08:39:28;;;;;;;63.67;29.67;;;10.20;99.90;;;;;;4971055;28;20207;-25
2021/12/18 08:42:02;;;;;;;61.03;29.53;;;10.20;99.90;;;;;;4985089;28;20257;-25
2021/12/18 08:44:30;;;;;;;58.80;29.27;;;10.20;99.90;;;;;;4975551;28;20199;-25
2021/12/18 08:47:03;;;;;;;59.97;28.03;;;10.10;99.90;;;;;;4970556;28;20216;-25
2021/12/18 08:49:33;;;;;;;58.33;28.10;;;10.20;99.90;;;;;;4983332;28;20202;-25
2021/12/18 08:52:00;;;;;;;53.17;26.77;;;10.20;99.90;;;;;;4978791;28;20324;-24
2021/12/18 08:54:27;;;;;;;62.30;29.37;;;10.10;99.90;;;;;;4982094;28;20229;-24
2021/12/18 08:57:08;;;;;;;54.20;28.03;;;10.20;99.90;;;;;;4972099;28;20212;-25
2021/12/18 08:59:39;;;;;;;60.30;28.10;;;10.20;99.90;;;;;;4985694;28;20296;-25
2021/12/18 09:02:08;;;;;;;62.63;29.37;;;10.10;99.90;;;;;;4982284;28;20272;-25
2021/12/18 09:04:38;;;;;;;59.60;28.67;;;10.20;99.90;;;;;;4977620;28;20301;-25
2021/12/18 09:07:07;;;;;;;62.60;29.57;;;10.10;99.90;;;;;;4969597;28;20476;-25
2021/12/18 09:09:39;;;;;;;64.33;30.17;;;10.20;99.90;;;;;;4977832;28;20198;-25
2021/12/18 09:12:11;;;;;;;59.77;29.60;;;10.20;99.90;;;;;;4968817;28;20207;-25
2021/12/18 09:14:39;;;;;;;60.87;29.83;;;10.20;99.90;;;;;;4975114;28;20218;-25
2021/12/18 09:17:07;;;;;;;57.73;28.57;;;10.20;99.90;;;;;;4960184;28;20704;-24
2021/12/18 09:19:35;;;;;;;56.10;27.77;;;10.20;99.90;;;;;;4974149;28;20254;-25
2021/12/18 09:22:06;;;;;;;60.13;28.43;;;10.20;99.90;;;;;;4981478;28;20673;-24
2021/12/18 09:24:38;;;;;;;59.63;28.23;;;10.20;99.90;;;;;;4969889;28;20251;-25
2021/12/18 09:27:06;;;;;;;60.23;27.60;;;10.30;99.90;;;;;;4969902;28;20218;-25
2021/12/18 09:29:38;;;;;;;60.20;27.97;;;10.30;99.90;;;;;;4977525;28;20194;-25
2021/12/18 09:32:08;;;;;;;56.97;28.00;;;10.30;99.90;;;;;;4973162;28;20693;-24
2021/12/18 09:34:36;;;;;;;60.70;28.37;;;10.30;99.90;;;;;;4968699;28;20687;-25
2021/12/18 09:37:07;;;;;;;56.30;27.43;;;10.30;99.90;;;;;;4969060;28;20218;-25
2021/12/18 09:39:34;;;;;;;59.43;28.10;;;10.30;99.90;;;;;;4978031;28;20210;-25
2021/12/18 09:42:02;;;;;;;59.30;27.80;;;10.30;99.90;;;;;;4983017;28;20324;-25
2021/12/18 09:44:32;;;;;;;52.97;25.80;;;10.30;99.90;;;;;;4977375;28;20206;-25
2021/12/18 09:47:00;;;;;;;57.10;27.77;;;10.40;99.90;;;;;;4973195;28;20222;-25
2021/12/18 09:49:28;;;;;;;56.10;27.17;;;10.40;99.90;;;;;;4970511;28;20202;-25
2021/12/18 09:51:56;;;;;;;62.27;29.50;;;10.40;99.90;;;;;;4967127;28;20753;-25
2021/12/18 09:54:24;;;;;;;64.17;30.37;;;10.40;99.90;;;;;;4981354;28;20234;-25
2021/12/18 09:56:56;;;;;;;61.83;29.67;;;10.40;99.90;;;;;;4972663;28;20625;-25
2021/12/18 09:59:23;;;;;;;64.87;29.10;;;10.40;99.90;;;;;;4980755;28;20205;-25
2021/12/18 10:01:50;;;;;;;59.80;29.57;;;10.40;99.90;;;;;;4975743;28;20232;-25
2021/12/18 10:04:28;;;;;;;64.53;30.67;;;10.40;99.90;;;;;;4983162;28;20219;-23
2021/12/18 10:07:01;;;;;;;66.57;31.50;;;10.40;99.90;;;;;;4987464;28;20760;-24
2021/12/18 10:09:32;;;;;;;68.53;32.00;;;10.40;99.90;;;;;;4961606;28;20203;-24
2021/12/18 10:12:35;;;;;;;69.90;29.77;;;10.40;99.90;;;;;;4969312;28;20696;-24
2021/12/18 10:15:16;;;;;;;66.43;30.97;;;10.40;99.90;;;;;;4978877;28;20202;-24
2021/12/18 10:17:45;;;;;;;71.77;32.20;;;10.40;99.90;;;;;;4978844;28;20206;-24
2021/12/18 10:20:13;;;;;;;71.23;30.57;;;10.40;99.90;;;;;;4978658;28;20241;-25
2021/12/18 10:22:47;;;;;;;66.50;30.33;;;10.40;99.90;;;;;;4979337;28;20252;-25
2021/12/18 10:25:23;;;;;;;70.17;31.03;;;10.40;99.90;;;;;;4972700;28;20206;-25
2021/12/18 10:28:04;;;;;;;66.07;30.27;;;10.40;99.90;;;;;;4971836;28;20225;-25
2021/12/18 10:30:34;;;;;;;68.00;30.37;;;10.40;99.90;;;;;;4976138;28;20214;-25
2021/12/18 10:33:12;;;;;;;69.67;29.97;;;10.40;99.90;;;;;;4974361;28;20518;-24
2021/12/18 10:35:43;;;;;;;64.93;29.17;;;10.40;99.90;;;;;;4985431;28;20633;-25
2021/12/18 10:38:38;;;;;;;70.13;30.37;;;10.40;99.90;;;;;;4976054;28;20214;-25
2021/12/18 10:41:38;;;;;;;72.43;30.93;;;10.40;99.90;;;;;;4971353;28;20329;-25
2021/12/18 10:44:12;;;;;;;63.70;29.40;;;10.40;99.90;;;;;;4959691;28;20199;-25
2021/12/18 10:46:47;;;;;;;65.63;31.03;;;10.40;99.90;;;;;;4981717;28;20217;-25
2021/12/18 10:49:17;;;;;;;58.23;29.40;;;10.40;99.90;;;;;;4990778;28;20680;-25
2021/12/18 10:51:57;;;;;;;57.93;28.73;;;10.40;99.90;;;;;;4991004;28;20237;-25
2021/12/18 10:54:26;;;;;;;58.77;28.00;;;10.40;99.90;;;;;;4974207;28;20589;-25
2021/12/18 10:56:55;;;;;;;56.93;27.70;;;10.40;99.90;;;;;;4984901;28;20218;-25
2021/12/18 10:59:27;;;;;;;60.33;29.60;;;10.40;99.90;;;;;;4989104;28;20294;-25
2021/12/18 11:01:57;;;;;;;57.80;29.43;;;10.40;99.90;;;;;;4989734;28;20631;-25
2021/12/18 11:04:38;;;;;;;60.60;29.13;;;10.40;99.90;;;;;;4989141;28;20776;-25
2021/12/18 11:07:26;;;;;;;64.07;30.97;;;10.40;99.90;;;;;;4990818;28;20226;-25
2021/12/18 11:10:40;;;;;;;67.47;30.83;;;10.40;99.90;;;;;;4983843;28;20206;-25
2021/12/18 11:15:34;;;;;;;66.07;32.83;;;10.50;99.90;;;;;;4971018;28;20207;-25
2021/12/18 11:18:01;;;;;;;62.50;31.50;;;10.50;99.90;;;;;;4972226;28;20681;-25
2021/12/18 11:20:29;;;;;;;67.03;31.87;;;10.50;99.90;;;;;;4971449;28;20643;-25
2021/12/18 11:22:57;;;;;;;80.67;34.83;;;10.50;99.90;;;;;;4976257;28;20251;-25
2021/12/18 11:25:25;;;;;;;67.27;32.60;;;10.50;99.90;;;;;;4979537;28;20617;-25
2021/12/18 11:27:54;;;;;;;69.13;32.63;;;10.50;99.90;;;;;;4989121;28;20568;-25
2021/12/18 11:30:21;;;;;;;70.63;31.87;;;10.50;99.90;;;;;;4976593;28;20203;-25
2021/12/18 11:32:54;;;;;;;64.20;30.33;;;10.50;99.90;;;;;;4976219;28;20222;-24
2021/12/18 11:35:24;;;;;;;71.27;31.13;;;10.50;99.90;;;;;;4989401;28;20286;-24
2021/12/18 11:37:59;;;;;;;63.63;28.73;;;10.50;99.90;;;;;;4980255;28;20211;-24
2021/12/18 11:40:32;;;;;;;64.77;30.67;;;10.60;99.90;;;;;;4975083;28;20224;-24
2021/12/18 11:43:04;;;;;;;58.37;27.50;;;10.60;99.90;;;;;;4975936;28;20226;-24
2021/12/18 11:45:36;;;;;;;51.13;25.37;;;10.50;99.90;;;;;;4989807;28;20288;-24
2021/12/18 11:48:04;;;;;;;54.27;26.77;;;10.50;99.90;;;;;;4970803;28;20215;-24
2021/12/18 11:50:39;;;;;;;52.13;25.63;;;10.50;99.90;;;;;;4971719;28;20226;-24
2021/12/18 11:53:14;;;;;;;51.20;25.40;;;10.60;99.90;;;;;;4973128;28;20238;-24
2021/12/18 11:55:50;;;;;;;52.57;26.60;;;10.60;99.90;;;;;;4970236;28;20219;-24
2021/12/18 11:58:27;;;;;;;50.13;24.83;;;10.60;99.90;;;;;;4981719;28;20707;-24
2021/12/18 12:00:59;;;;;;;53.13;25.33;;;10.60;99.90;;;;;;4988950;28;20210;-24
2021/12/18 12:03:32;;;;;;;54.87;26.20;;;10.60;99.90;;;;;;4993268;28;20234;-23
2021/12/18 12:06:04;;;;;;;53.77;24.87;;;10.60;99.90;;;;;;4968815;28;20211;-25
2021/12/18 12:08:36;;;;;;;49.87;25.40;;;10.60;99.90;;;;;;4972457;28;20655;-25
2021/12/18 12:11:23;;;;;;;45.10;23.23;;;10.60;99.90;;;;;;4971136;28;20205;-25
2021/12/18 12:13:54;;;;;;;41.87;20.80;;;10.60;99.90;;;;;;4978925;28;20785;-25
2021/12/18 12:16:44;;;;;;;37.07;21.20;;;10.60;99.90;;;;;;4971306;28;20218;-25
2021/12/18 12:19:19;;;;;;;43.37;21.83;;;10.60;99.90;;;;;;4971336;28;20246;-25
2021/12/18 12:21:54;;;;;;;42.43;21.50;;;10.60;99.90;;;;;;4972688;28;20214;-25
2021/12/18 12:24:24;;;;;;;42.90;22.40;;;10.60;99.90;;;;;;4972803;28;20681;-25
2021/12/18 12:26:55;;;;;;;41.90;20.80;;;10.60;99.90;;;;;;4980984;28;20218;-25
2021/12/18 12:29:22;;;;;;;42.27;21.53;;;10.60;99.90;;;;;;4978391;28;20562;-25
2021/12/18 12:32:12;;;;;;;37.03;19.90;;;10.60;99.90;;;;;;4973365;28;20296;-24
2021/12/18 12:34:56;;;;;;;37.40;19.67;;;10.70;99.90;;;;;;4983157;28;20237;-25
2021/12/18 12:37:24;;;;;;;38.43;19.30;;;10.70;99.90;;;;;;4975564;28;20220;-25
2021/12/18 12:39:53;;;;;;;36.13;18.73;;;10.70;99.90;;;;;;4971637;28;20225;-25
2021/12/18 12:42:23;;;;;;;33.53;17.70;;;10.70;99.90;;;;;;4975974;28;20293;-25
2021/12/18 12:45:02;;;;;;;31.07;17.03;;;10.60;99.90;;;;;;4975526;28;20207;-25
2021/12/18 12:47:31;;;;;;;31.03;16.27;;;10.60;99.90;;;;;;4977795;28;20214;-25
2021/12/18 12:50:07;;;;;;;35.13;18.03;;;10.60;99.90;;;;;;4972204;28;20214;-28
2021/12/18 12:52:53;;;;;;;34.43;17.90;;;10.60;99.90;;;;;;4968852;28;20246;-25
2021/12/18 12:55:38;;;;;;;37.27;18.73;;;10.60;99.90;;;;;;4971874;28;20218;-25
2021/12/18 12:58:24;;;;;;;48.83;22.50;;;10.60;99.90;;;;;;4972717;28;20211;-24
2021/12/18 13:01:01;;;;;;;40.43;20.23;;;10.60;99.90;;;;;;4972449;28;20206;-25
2021/12/18 13:03:31;;;;;;;48.97;23.13;;;10.60;99.90;;;;;;4969963;28;20230;-25
2021/12/18 13:06:02;;;;;;;47.20;22.73;;;10.60;99.90;;;;;;4974227;28;20608;-24
2021/12/18 13:08:33;;;;;;;44.67;21.70;;;10.50;99.90;;;;;;4968829;28;20382;-25
2021/12/18 13:11:03;;;;;;;42.23;20.63;;;10.50;99.90;;;;;;4967228;28;20666;-25
2021/12/18 13:13:37;;;;;;;45.07;20.57;;;10.60;99.90;;;;;;4973602;28;20206;-25
2021/12/18 13:16:11;;;;;;;38.37;18.60;;;10.60;99.90;;;;;;4983948;28;20199;-25
2021/12/18 13:18:41;;;;;;;31.53;16.70;;;10.60;99.90;;;;;;4972482;28;21784;-25
2021/12/18 13:21:31;;;;;;;25.73;15.77;;;10.50;99.90;;;;;;4977996;28;20203;-25
2021/12/18 13:24:01;;;;;;;29.23;15.40;;;10.60;99.90;;;;;;4968026;28;20218;-25
2021/12/18 13:26:38;;;;;;;25.10;14.37;;;10.50;99.90;;;;;;4968155;28;20701;-25
2021/12/18 13:29:17;;;;;;;26.10;15.30;;;10.50;99.90;;;;;;4971516;28;20237;-25
2021/12/18 13:31:49;;;;;;;23.97;13.67;;;10.50;99.90;;;;;;4972931;28;20202;-25
2021/12/18 13:34:28;;;;;;;26.80;15.20;;;10.50;99.90;;;;;;4968482;28;20211;-24
2021/12/18 13:37:04;;;;;;;24.20;14.77;;;10.50;99.90;;;;;;4977031;28;20214;-25
2021/12/18 13:39:34;;;;;;;28.50;16.20;;;10.50;99.90;;;;;;4967502;28;20304;-25
2021/12/18 13:42:14;;;;;;;28.13;15.77;;;10.50;99.90;;;;;;4972746;28;20245;-25